Time;durP1;ratioP1;P1;durP2;ratioP2;P2;SDS_P1;SDS_P2;PMS_P1;PMS_P2;Temp;Humidity;BMP_temperature;BMP_pressure;BME280_temperature;BME280_humidity;BME280_pressure;Samples;Min_cycle;Max_cycle;Signal;HPM_P1;HPM_P2
2022/02/14 00:00:22;;;;;;;8.57;2.97;;;;;;;13.73;42.79;98239.44;5093149;28;20036;-49
2022/02/14 00:02:48;;;;;;;8.55;2.85;;;;;;;13.77;42.88;98240.59;5094416;28;20405;-49
2022/02/14 00:05:14;;;;;;;18.65;4.68;;;;;;;13.79;42.71;98225.34;5094368;28;20024;-50
2022/02/14 00:07:40;;;;;;;16.65;3.40;;;;;;;13.76;43.17;98244.25;5094596;28;20024;-48
2022/02/14 00:10:07;;;;;;;9.18;2.88;;;;;;;13.75;42.62;98243.44;5092952;28;20031;-49
2022/02/14 00:12:34;;;;;;;10.50;2.63;;;;;;;13.65;43.94;98235.31;5094251;28;20138;-50
2022/02/14 00:15:01;;;;;;;14.50;2.97;;;;;;;13.59;43.55;98238.88;5094163;28;20031;-49
2022/02/14 00:17:27;;;;;;;10.93;2.92;;;;;;;13.57;42.63;98225.94;5093122;28;20177;-49
2022/02/14 00:19:53;;;;;;;8.48;2.30;;;;;;;13.56;42.49;98229.59;5094038;28;20017;-50
2022/02/14 00:22:21;;;;;;;16.23;4.05;;;;;;;13.61;43.00;98226.28;5094005;28;20017;-49
2022/02/14 00:24:52;;;;;;;14.05;2.65;;;;;;;13.75;42.60;98217.06;5092712;28;20031;-49
2022/02/14 00:27:19;;;;;;;18.75;6.85;;;;;;;13.76;42.30;98223.97;5093908;28;20020;-50
2022/02/14 00:29:45;;;;;;;15.63;4.82;;;;;;;13.77;42.31;98208.94;5093903;28;20024;-49
2022/02/14 00:32:12;;;;;;;22.45;6.88;;;;;;;13.79;42.16;98215.56;5093876;28;20512;-50
2022/02/14 00:34:37;;;;;;;16.98;5.15;;;;;;;13.74;42.39;98204.13;5093482;28;20035;-50
2022/02/14 00:37:04;;;;;;;16.42;2.72;;;;;;;13.82;41.81;98211.66;5092507;28;20401;-48
2022/02/14 00:39:30;;;;;;;14.27;2.30;;;;;;;13.83;42.08;98208.00;5093572;28;20024;-50
2022/02/14 00:41:56;;;;;;;15.55;3.53;;;;;;;13.90;41.79;98207.88;5092354;28;20032;-49
2022/02/14 00:44:22;;;;;;;11.18;2.58;;;;;;;13.85;41.95;98215.69;5093659;28;20024;-50
2022/02/14 00:46:47;;;;;;;18.38;3.13;;;;;;;13.79;41.82;98212.16;5092230;28;20107;-49
2022/02/14 00:49:14;;;;;;;10.57;2.90;;;;;;;13.73;42.04;98203.31;5093513;28;20020;-49
2022/02/14 00:51:39;;;;;;;10.45;3.33;;;;;;;13.65;42.73;98203.69;5093476;28;20024;-48
2022/02/14 00:54:05;;;;;;;6.13;2.33;;;;;;;13.58;42.45;98200.34;5093477;28;20386;-50
2022/02/14 00:56:31;;;;;;;9.57;3.72;;;;;;;13.52;42.75;98193.38;5093288;28;20123;-50
2022/02/14 00:58:57;;;;;;;11.23;2.85;;;;;;;13.45;42.66;98188.22;5093407;28;20043;-49
2022/02/14 01:01:22;;;;;;;8.48;2.33;;;;;;;13.45;42.91;98201.41;5091934;28;20024;-50
2022/02/14 01:03:48;;;;;;;20.92;4.80;;;;;;;13.36;43.35;98200.16;5093233;28;20062;-50
2022/02/14 01:06:14;;;;;;;13.13;2.83;;;;;;;13.34;43.09;98196.94;5093192;28;20035;-48
2022/02/14 01:08:40;;;;;;;7.93;2.40;;;;;;;13.27;43.04;98193.59;5093161;28;20394;-49
2022/02/14 01:11:06;;;;;;;8.55;2.80;;;;;;;13.13;43.17;98191.19;5093073;28;20028;-49
2022/02/14 01:13:32;;;;;;;13.55;2.88;;;;;;;12.99;44.15;98192.44;5093107;28;20091;-49
2022/02/14 01:15:58;;;;;;;10.82;2.58;;;;;;;12.93;44.28;98194.16;5092952;28;20058;-49
2022/02/14 01:18:23;;;;;;;10.98;2.53;;;;;;;13.01;44.29;98192.22;5092930;28;20051;-48
2022/02/14 01:20:50;;;;;;;8.90;2.42;;;;;;;13.05;43.70;98173.09;5092929;28;20031;-50
2022/02/14 01:23:16;;;;;;;8.82;2.25;;;;;;;13.09;43.97;98178.72;5091606;28;20020;-48
2022/02/14 01:25:42;;;;;;;6.53;2.30;;;;;;;12.99;43.76;98177.44;5091470;28;20042;-51
2022/02/14 01:28:07;;;;;;;10.70;2.38;;;;;;;12.97;44.19;98168.16;5092816;28;20101;-49
2022/02/14 01:30:33;;;;;;;17.67;3.38;;;;;;;12.87;44.44;98174.00;5092779;28;20031;-49
2022/02/14 01:33:00;;;;;;;11.85;2.17;;;;;;;12.90;44.43;98176.19;5091347;28;20020;-49
2022/02/14 01:35:27;;;;;;;10.52;2.47;;;;;;;12.91;44.49;98167.25;5092364;28;20506;-49
2022/02/14 01:37:53;;;;;;;14.68;2.72;;;;;;;12.88;44.60;98172.19;5092599;28;20039;-50
2022/02/14 01:40:19;;;;;;;19.25;4.47;;;;;;;12.81;45.06;98163.56;5092502;28;20012;-49
2022/02/14 01:42:45;;;;;;;7.97;2.22;;;;;;;12.81;45.08;98153.84;5092521;28;20020;-49
2022/02/14 01:45:12;;;;;;;7.72;2.72;;;;;;;12.73;45.02;98151.53;5092520;28;20450;-50
2022/02/14 01:47:40;;;;;;;9.55;3.20;;;;;;;12.83;44.98;98150.97;5091095;28;20102;-49
2022/02/14 01:50:07;;;;;;;8.13;2.40;;;;;;;12.89;44.87;98161.41;5091072;28;20398;-51
2022/02/14 01:52:35;;;;;;;12.95;2.97;;;;;;;12.72;44.97;98163.91;5092347;28;20081;-49
2022/02/14 01:55:03;;;;;;;7.63;2.47;;;;;;;12.62;44.92;98165.50;5092268;28;20031;-50
2022/02/14 01:57:29;;;;;;;8.88;2.92;;;;;;;12.55;45.22;98160.31;5091877;28;20024;-49
2022/02/14 01:59:57;;;;;;;10.68;2.65;;;;;;;12.56;45.86;98161.94;5092292;28;20490;-49
2022/02/14 02:02:23;;;;;;;15.35;5.00;;;;;;;12.67;45.83;98152.44;5092151;28;20020;-50
2022/02/14 02:04:49;;;;;;;14.75;3.30;;;;;;;12.75;45.43;98150.28;5092161;28;20077;-50
2022/02/14 02:07:15;;;;;;;12.95;2.70;;;;;;;12.68;45.42;98152.22;5092047;28;20031;-48
2022/02/14 02:09:45;;;;;;;8.90;2.10;;;;;;;12.65;45.88;98144.78;5092134;28;20036;-50
2022/02/14 02:12:25;;;;;;;7.15;2.17;;;;;;;12.67;45.67;98136.66;5090778;28;20032;-49
2022/02/14 02:14:53;;;;;;;14.98;2.10;;;;;;;12.70;46.06;98120.41;5092027;28;20060;-50
2022/02/14 02:17:19;;;;;;;10.10;2.55;;;;;;;12.77;46.13;98115.81;5092257;28;20024;-50
2022/02/14 02:19:45;;;;;;;12.10;2.28;;;;;;;12.97;45.45;98104.94;5091989;28;20031;-50
2022/02/14 02:22:11;;;;;;;10.00;2.80;;;;;;;12.98;45.40;98112.63;5090671;28;20067;-49
2022/02/14 02:24:47;;;;;;;9.07;2.30;;;;;;;12.84;45.94;98103.34;5090625;28;20565;-50
2022/02/14 02:27:13;;;;;;;11.30;2.70;;;;;;;12.79;46.17;98100.59;5090561;28;20413;-49
2022/02/14 02:29:40;;;;;;;8.75;2.88;;;;;;;12.88;46.09;98099.25;5090589;28;20032;-50
2022/02/14 02:32:07;;;;;;;9.68;2.50;;;;;;;12.78;46.54;98091.09;5091893;28;20020;-49
2022/02/14 02:34:39;;;;;;;13.32;3.75;;;;;;;12.71;47.03;98069.34;5091450;28;20367;-49
2022/02/14 02:37:07;;;;;;;8.50;2.40;;;;;;;12.90;46.56;98068.19;5090558;28;20070;-49
2022/02/14 02:39:33;;;;;;;8.32;2.28;;;;;;;12.87;47.00;98071.28;5091811;28;20040;-49
2022/02/14 02:41:59;;;;;;;14.02;3.05;;;;;;;12.67;46.99;98063.72;5091735;28;20028;-49
2022/02/14 02:44:25;;;;;;;7.75;2.65;;;;;;;12.69;47.71;98066.13;5091760;28;20110;-49
2022/02/14 02:46:51;;;;;;;12.70;3.30;;;;;;;12.79;47.51;98071.63;5091730;28;20021;-48
2022/02/14 02:49:18;;;;;;;9.80;2.63;;;;;;;12.80;47.76;98049.56;5090380;28;20468;-50
2022/02/14 02:51:52;;;;;;;5.82;1.92;;;;;;;12.76;47.37;98051.84;5091659;28;20093;-50
2022/02/14 02:54:20;;;;;;;10.70;3.17;;;;;;;12.76;47.77;98051.03;5091734;28;20055;-50
2022/02/14 02:56:48;;;;;;;12.63;2.22;;;;;;;12.67;48.11;98036.59;5091525;28;20463;-49
2022/02/14 02:59:14;;;;;;;6.47;2.10;;;;;;;12.70;47.95;98020.38;5091606;28;20016;-49
2022/02/14 03:01:41;;;;;;;6.78;2.45;;;;;;;12.86;47.56;98016.19;5091617;28;20025;-49
2022/02/14 03:04:09;;;;;;;6.90;2.55;;;;;;;12.86;47.66;98013.56;5090281;28;20048;-49
2022/02/14 03:06:35;;;;;;;11.80;2.90;;;;;;;12.84;47.77;98011.19;5091593;28;20024;-48
2022/02/14 03:09:02;;;;;;;11.65;3.22;;;;;;;12.94;47.37;97997.44;5090208;28;20501;-48
2022/02/14 03:11:28;;;;;;;6.38;2.15;;;;;;;12.97;46.87;98002.22;5095427;28;20024;-50
2022/02/14 03:13:54;;;;;;;7.68;2.08;;;;;;;12.86;47.06;98009.13;5095404;28;20077;-48
2022/02/14 03:16:20;;;;;;;6.55;2.35;;;;;;;12.83;47.55;98017.47;5095229;28;20146;-49
2022/02/14 03:18:47;;;;;;;8.10;2.67;;;;;;;12.93;47.49;98009.00;5095322;28;20012;-49
2022/02/14 03:21:14;;;;;;;5.90;2.08;;;;;;;12.91;47.54;98005.78;5095201;28;20036;-49
2022/02/14 03:23:40;;;;;;;9.73;2.95;;;;;;;12.89;47.28;97994.69;5093936;28;20023;-50
2022/02/14 03:26:07;;;;;;;14.45;3.47;;;;;;;12.89;47.32;98007.84;5093783;28;20039;-49
2022/02/14 03:28:33;;;;;;;7.22;1.98;;;;;;;12.92;47.08;98010.84;5095168;28;20024;-50
2022/02/14 03:31:00;;;;;;;8.93;2.00;;;;;;;12.99;46.97;98014.13;5095100;28;20024;-48
2022/02/14 03:33:26;;;;;;;10.90;2.95;;;;;;;12.94;46.94;98007.97;5095314;28;20051;-49
2022/02/14 03:35:52;;;;;;;11.90;2.03;;;;;;;12.85;47.12;98002.25;5093228;28;20051;-49
2022/02/14 03:38:20;;;;;;;8.18;2.50;;;;;;;12.76;47.64;98020.25;5093909;28;20036;-48
2022/02/14 03:40:46;;;;;;;6.65;2.10;;;;;;;12.73;48.18;98015.41;5093572;28;20371;-48
2022/02/14 03:43:11;;;;;;;9.60;1.98;;;;;;;12.72;48.03;98013.03;5093527;28;20047;-50
2022/02/14 03:45:40;;;;;;;4.28;1.25;;;;;;;12.78;47.57;98002.38;5094870;28;20074;-49
2022/02/14 03:48:07;;;;;;;3.65;1.42;;;;;;;12.76;47.80;98008.91;5094769;28;20024;-50
2022/02/14 03:50:33;;;;;;;5.05;1.80;;;;;;;12.83;47.38;97991.13;5093454;28;20026;-49
2022/02/14 03:52:59;;;;;;;5.85;1.77;;;;;;;12.93;47.70;97999.25;5094735;28;20032;-50
2022/02/14 03:55:25;;;;;;;6.22;1.77;;;;;;;13.13;47.63;97993.59;5093180;28;20039;-48
2022/02/14 03:57:51;;;;;;;5.90;2.13;;;;;;;13.16;46.79;97992.34;5093281;28;20489;-49
2022/02/14 04:00:19;;;;;;;7.10;1.90;;;;;;;13.08;47.13;97990.03;5094461;28;20016;-50
2022/02/14 04:02:45;;;;;;;10.52;5.43;;;;;;;12.98;47.13;97993.31;5093146;28;20504;-48
2022/02/14 04:05:12;;;;;;;5.70;2.70;;;;;;;12.95;47.45;97991.91;5094347;28;20414;-49
2022/02/14 04:07:38;;;;;;;7.22;2.20;;;;;;;12.96;47.51;97996.16;5093110;28;20115;-50
2022/02/14 04:10:05;;;;;;;11.43;1.98;;;;;;;12.96;47.72;97993.53;5094245;28;20649;-49
2022/02/14 04:12:31;;;;;;;7.90;2.13;;;;;;;12.91;47.71;98006.59;5094286;28;20107;-49
2022/02/14 04:14:57;;;;;;;13.30;2.35;;;;;;;12.82;48.63;98010.63;5092894;28;20108;-50
2022/02/14 04:17:24;;;;;;;7.38;1.88;;;;;;;12.82;48.63;98010.63;5094428;28;20035;-48
2022/02/14 04:19:49;;;;;;;6.90;2.10;;;;;;;12.78;48.43;98017.38;5094025;28;20103;-50
2022/02/14 04:22:15;;;;;;;10.77;2.70;;;;;;;12.83;48.59;98017.47;5092465;28;20031;-49
2022/02/14 04:24:41;;;;;;;5.78;2.30;;;;;;;12.92;48.45;98008.19;5092803;28;20100;-49
2022/02/14 04:27:06;;;;;;;5.70;2.13;;;;;;;12.93;48.64;98011.63;5092638;28;20439;-49
2022/02/14 04:29:32;;;;;;;9.18;2.90;;;;;;;12.88;48.83;98012.31;5092710;28;20016;-50
2022/02/14 04:31:58;;;;;;;7.75;2.10;;;;;;;12.99;48.87;98015.97;5093907;28;20137;-48
2022/02/14 04:34:24;;;;;;;9.88;2.33;;;;;;;13.04;48.70;98002.91;5093869;28;20024;-49
2022/02/14 04:36:50;;;;;;;7.72;2.03;;;;;;;13.07;48.13;98014.81;5092251;28;20052;-49
2022/02/14 04:39:17;;;;;;;7.45;2.20;;;;;;;13.04;48.60;98017.88;5093705;28;20036;-49
2022/02/14 04:41:43;;;;;;;10.13;2.38;;;;;;;13.01;48.43;98010.47;5092379;28;20057;-49
2022/02/14 04:44:10;;;;;;;13.25;3.30;;;;;;;12.98;48.69;98002.00;5092351;28;20027;-50
2022/02/14 04:46:37;;;;;;;7.57;2.35;;;;;;;13.11;48.47;98006.19;5093640;28;20113;-49
2022/02/14 04:49:04;;;;;;;8.52;2.33;;;;;;;13.21;48.23;98004.81;5093488;28;20032;-50
2022/02/14 04:51:30;;;;;;;6.03;1.88;;;;;;;13.37;48.15;98012.00;5092199;28;20021;-49
2022/02/14 04:53:56;;;;;;;4.57;1.80;;;;;;;13.42;47.64;98001.56;5093419;28;20030;-48
2022/02/14 04:56:22;;;;;;;11.13;2.25;;;;;;;13.35;47.73;98008.81;5093304;28;20024;-49
2022/02/14 04:58:48;;;;;;;8.23;2.65;;;;;;;13.33;47.95;98009.03;5092043;28;20058;-48
2022/02/14 05:01:14;;;;;;;11.48;3.15;;;;;;;13.52;47.68;98008.84;5091977;28;20443;-48
2022/02/14 05:03:40;;;;;;;11.70;2.75;;;;;;;13.73;47.28;98005.53;5092029;28;20020;-48
2022/02/14 05:06:06;;;;;;;11.50;2.75;;;;;;;13.75;46.95;97992.13;5093209;28;20024;-48
2022/02/14 05:08:32;;;;;;;10.18;2.40;;;;;;;13.78;47.00;97995.09;5091870;28;20398;-49
2022/02/14 05:10:58;;;;;;;13.82;3.13;;;;;;;13.86;46.75;97988.59;5091837;28;20081;-49
2022/02/14 05:13:24;;;;;;;8.30;2.10;;;;;;;13.78;46.56;97989.00;5091832;28;20032;-49
2022/02/14 05:15:50;;;;;;;13.98;2.67;;;;;;;13.66;46.58;97988.25;5092981;28;20394;-49
2022/02/14 05:18:16;;;;;;;15.68;2.60;;;;;;;13.63;47.05;97992.19;5092989;28;20024;-49
2022/02/14 05:20:41;;;;;;;10.95;2.63;;;;;;;13.67;46.68;97993.31;5091639;28;20031;-49
2022/02/14 05:23:07;;;;;;;13.73;2.70;;;;;;;13.71;47.38;97983.88;5091630;28;20016;-50
2022/02/14 05:25:33;;;;;;;12.40;3.10;;;;;;;13.71;47.10;97981.25;5091521;28;20063;-50
2022/02/14 05:27:59;;;;;;;15.18;3.70;;;;;;;13.72;47.10;97974.94;5092780;28;20090;-49
2022/02/14 05:30:25;;;;;;;13.43;3.42;;;;;;;13.78;47.21;97974.00;5092739;28;20098;-48
2022/02/14 05:32:51;;;;;;;11.50;3.03;;;;;;;13.83;46.65;97981.19;5090677;28;20040;-48
2022/02/14 05:35:17;;;;;;;10.18;2.60;;;;;;;13.84;46.65;97971.41;5090999;28;20040;-49
2022/02/14 05:37:43;;;;;;;8.98;2.80;;;;;;;13.86;46.74;97974.63;5092700;28;20440;-49
2022/02/14 05:40:09;;;;;;;11.65;2.92;;;;;;;13.86;46.37;97974.63;5092547;28;20031;-48
2022/02/14 05:42:35;;;;;;;9.88;2.95;;;;;;;13.88;46.72;97981.25;5092558;28;20494;-49
2022/02/14 05:45:01;;;;;;;23.63;3.42;;;;;;;13.83;46.68;97975.13;5092440;28;20035;-49
2022/02/14 05:47:26;;;;;;;12.27;2.53;;;;;;;13.92;46.51;97977.13;5091139;28;20024;-49
2022/02/14 05:49:52;;;;;;;11.60;2.90;;;;;;;13.93;46.16;97972.63;5091120;28;20436;-48
2022/02/14 05:52:18;;;;;;;11.23;3.47;;;;;;;13.78;46.45;97966.06;5092333;28;20051;-49
2022/02/14 05:54:44;;;;;;;16.85;3.35;;;;;;;13.74;46.84;97974.69;5090984;28;20397;-48
2022/02/14 05:57:10;;;;;;;10.07;2.42;;;;;;;13.74;47.07;97972.88;5090978;28;20451;-49
2022/02/14 05:59:36;;;;;;;9.80;3.00;;;;;;;13.69;46.87;97972.78;5090981;28;20494;-48
2022/02/14 06:02:03;;;;;;;17.88;3.03;;;;;;;13.52;47.14;97964.84;5092186;28;20468;-50
2022/02/14 06:04:32;;;;;;;8.77;2.42;;;;;;;13.59;47.36;97967.31;5092237;28;20099;-50
2022/02/14 06:06:58;;;;;;;11.98;2.63;;;;;;;13.61;47.13;97962.59;5090868;28;20028;-49
2022/02/14 06:09:26;;;;;;;20.00;4.18;;;;;;;13.42;47.26;97961.22;5090858;28;20028;-49
2022/02/14 06:11:57;;;;;;;12.68;2.90;;;;;;;13.41;47.98;97962.25;5092049;28;20388;-49
2022/02/14 06:14:23;;;;;;;11.20;2.50;;;;;;;13.45;47.58;97964.19;5090765;28;20036;-50
2022/02/14 06:16:50;;;;;;;17.48;2.53;;;;;;;13.51;47.80;97960.59;5090636;28;20024;-49
2022/02/14 06:19:15;;;;;;;16.90;3.30;;;;;;;13.59;47.36;97959.41;5090725;28;20053;-50
2022/02/14 06:21:41;;;;;;;11.60;2.38;;;;;;;13.66;47.51;97959.25;5090634;28;20036;-49
2022/02/14 06:24:07;;;;;;;10.95;2.28;;;;;;;13.66;46.94;97967.97;5090645;28;20508;-49
2022/02/14 06:26:32;;;;;;;12.13;2.50;;;;;;;13.49;47.39;97969.78;5090577;28;20024;-49
2022/02/14 06:29:02;;;;;;;10.18;2.30;;;;;;;13.39;47.35;97965.91;5091863;28;20035;-49
2022/02/14 06:31:29;;;;;;;9.68;3.30;;;;;;;13.47;47.51;97974.50;5090589;28;20024;-50
2022/02/14 06:33:55;;;;;;;11.43;2.80;;;;;;;13.65;47.24;97974.28;5091832;28;20032;-49
2022/02/14 06:36:23;;;;;;;13.80;2.50;;;;;;;13.88;46.82;97980.44;5091520;28;20056;-49
2022/02/14 06:38:50;;;;;;;14.95;4.07;;;;;;;14.12;46.78;97967.91;5091770;28;20027;-48
2022/02/14 06:41:16;;;;;;;13.63;2.60;;;;;;;14.31;46.24;97979.03;5091676;28;20025;-50
2022/02/14 06:43:42;;;;;;;11.77;2.22;;;;;;;14.52;45.51;97980.91;5091617;28;20026;-49
2022/02/14 06:46:08;;;;;;;12.68;3.10;;;;;;;14.53;45.34;97982.50;5094579;28;20504;-50
2022/02/14 06:48:33;;;;;;;10.98;2.88;;;;;;;14.44;44.97;97978.66;5095870;28;20020;-50
2022/02/14 06:51:00;;;;;;;11.82;2.92;;;;;;;14.26;45.36;97971.03;5095866;28;20024;-49
2022/02/14 06:53:26;;;;;;;11.18;3.75;;;;;;;14.24;45.86;97978.38;5095845;28;20038;-50
2022/02/14 06:55:54;;;;;;;17.13;3.40;;;;;;;14.15;45.77;97976.16;5095906;28;20032;-48
2022/02/14 06:58:20;;;;;;;6.32;2.17;;;;;;;14.07;46.29;97981.03;5095746;28;20559;-49
2022/02/14 07:00:46;;;;;;;6.10;2.00;;;;;;;14.05;45.76;97973.34;5095638;28;20036;-50
2022/02/14 07:03:12;;;;;;;9.70;3.38;;;;;;;13.95;46.54;97967.91;5095630;28;20024;-48
2022/02/14 07:05:37;;;;;;;14.50;3.22;;;;;;;13.94;46.11;97975.03;5095540;28;20034;-49
2022/02/14 07:08:04;;;;;;;9.68;2.40;;;;;;;14.03;45.94;97972.00;5094172;28;20072;-49
2022/02/14 07:10:30;;;;;;;13.98;3.42;;;;;;;14.04;46.12;97974.38;5094178;28;20061;-49
2022/02/14 07:12:56;;;;;;;9.10;2.53;;;;;;;14.03;46.56;97983.34;5094122;28;20020;-48
2022/02/14 07:15:22;;;;;;;10.23;3.45;;;;;;;14.12;46.00;97976.63;5093989;28;20024;-50
2022/02/14 07:17:51;;;;;;;16.30;2.80;;;;;;;14.14;46.04;97971.09;5094039;28;20445;-49
2022/02/14 07:20:19;;;;;;;11.07;2.60;;;;;;;14.14;45.87;97969.25;5095356;28;20027;-49
2022/02/14 07:22:45;;;;;;;3.70;1.80;;;;;;;14.07;45.77;97965.22;5093910;28;20107;-50
2022/02/14 07:25:11;;;;;;;13.13;2.88;;;;;;;14.02;46.22;97963.25;5093842;28;20024;-49
2022/02/14 07:27:38;;;;;;;10.32;2.20;;;;;;;14.03;46.29;97959.59;5093990;28;20023;-49
2022/02/14 07:30:13;;;;;;;16.30;2.50;;;;;;;14.09;46.96;97960.50;5095086;28;20394;-49
2022/02/14 07:32:41;;;;;;;13.73;2.67;;;;;;;14.02;46.88;97954.56;5093940;28;20024;-49
2022/02/14 07:35:07;;;;;;;14.30;3.80;;;;;;;13.82;47.09;97955.03;5094718;28;20048;-50
2022/02/14 07:37:33;;;;;;;16.65;2.53;;;;;;;13.66;47.24;97952.16;5093740;28;20059;-49
2022/02/14 07:39:59;;;;;;;10.10;2.63;;;;;;;13.59;47.51;97954.13;5093523;28;20120;-49
2022/02/14 07:42:27;;;;;;;20.58;3.88;;;;;;;13.58;47.86;97957.81;5095151;28;20024;-49
2022/02/14 07:44:53;;;;;;;8.43;2.65;;;;;;;13.66;47.87;97953.97;5095074;28;20111;-49
2022/02/14 07:47:19;;;;;;;13.48;3.25;;;;;;;13.70;47.34;97955.94;5093465;28;20486;-49
2022/02/14 07:49:45;;;;;;;14.38;3.65;;;;;;;13.61;47.64;97951.28;5093397;28;20077;-50
2022/02/14 07:52:10;;;;;;;10.73;2.80;;;;;;;13.58;47.47;97953.34;5094693;28;20107;-49
2022/02/14 07:54:37;;;;;;;12.02;2.80;;;;;;;13.61;47.60;97943.38;5094514;28;20114;-48
2022/02/14 07:57:03;;;;;;;14.82;2.95;;;;;;;13.53;47.81;97940.06;5092686;28;20454;-48
2022/02/14 07:59:29;;;;;;;14.00;3.05;;;;;;;13.61;47.79;97946.78;5093298;28;20517;-49
2022/02/14 08:01:54;;;;;;;15.70;3.78;;;;;;;13.66;47.36;97944.25;5094519;28;20058;-49
2022/02/14 08:04:20;;;;;;;14.15;2.45;;;;;;;13.69;47.34;97943.75;5094490;28;20049;-50
2022/02/14 08:06:46;;;;;;;24.05;3.70;;;;;;;13.71;47.37;97938.25;5093059;28;20040;-50
2022/02/14 08:09:12;;;;;;;9.50;2.65;;;;;;;13.81;47.28;97933.16;5093103;28;20081;-50
2022/02/14 08:11:38;;;;;;;11.30;2.90;;;;;;;13.89;47.16;97939.88;5094235;28;20099;-49
2022/02/14 08:14:04;;;;;;;13.40;2.75;;;;;;;13.86;46.91;97942.97;5094321;28;20028;-48
2022/02/14 08:16:34;;;;;;;20.45;3.33;;;;;;;13.70;47.23;97934.81;5092824;28;20058;-49
2022/02/14 08:19:00;;;;;;;10.63;2.60;;;;;;;13.70;47.45;97934.00;5092895;28;20031;-49
2022/02/14 08:21:26;;;;;;;20.40;3.50;;;;;;;13.75;47.29;97929.63;5094094;28;20016;-50
2022/02/14 08:23:52;;;;;;;22.67;3.10;;;;;;;13.86;46.97;97920.03;5092647;28;20028;-49
2022/02/14 08:26:19;;;;;;;20.92;5.90;;;;;;;13.92;47.43;97920.91;5092781;28;20040;-48
2022/02/14 08:28:45;;;;;;;29.48;8.85;;;;;;;14.10;47.58;97925.13;5092660;28;20408;-49
2022/02/14 08:31:11;;;;;;;10.27;2.97;;;;;;;14.21;46.88;97923.47;5092661;28;20497;-49
2022/02/14 08:33:38;;;;;;;9.30;2.42;;;;;;;14.15;46.65;97923.38;5093930;28;20043;-49
2022/02/14 08:36:05;;;;;;;16.98;2.70;;;;;;;14.21;46.75;97924.25;5093622;28;20513;-48
2022/02/14 08:38:32;;;;;;;16.02;5.18;;;;;;;14.28;46.52;97910.88;5093854;28;20024;-50
2022/02/14 08:40:58;;;;;;;31.60;4.63;;;;;;;14.44;46.41;97919.78;5093749;28;20028;-48
2022/02/14 08:43:24;;;;;;;27.63;4.65;;;;;;;14.47;46.59;97917.47;5093832;28;20028;-48
2022/02/14 08:45:50;;;;;;;26.88;3.83;;;;;;;14.61;46.30;97922.41;5092377;28;20390;-48
2022/02/14 08:48:17;;;;;;;12.95;3.28;;;;;;;14.64;46.16;97922.72;5093633;28;20394;-49
2022/02/14 08:50:43;;;;;;;26.42;4.75;;;;;;;14.62;46.20;97924.03;5093558;28;20046;-49
2022/02/14 08:53:10;;;;;;;18.80;4.10;;;;;;;14.67;46.17;97924.06;5093589;28;20028;-49
2022/02/14 08:55:37;;;;;;;20.98;3.47;;;;;;;14.70;45.96;97921.75;5093384;28;20021;-49
2022/02/14 08:58:03;;;;;;;12.55;3.83;;;;;;;14.81;45.53;97914.75;5093443;28;20091;-49
2022/02/14 09:00:29;;;;;;;17.15;3.50;;;;;;;14.86;45.64;97922.72;5093386;28;20099;-49
2022/02/14 09:02:55;;;;;;;15.55;2.95;;;;;;;14.89;45.58;97922.25;5091998;28;20169;-50
2022/02/14 09:05:21;;;;;;;32.58;5.55;;;;;;;15.01;45.45;97923.94;5091931;28;20577;-50
2022/02/14 09:07:47;;;;;;;42.47;6.38;;;;;;;15.05;45.51;97922.41;5092116;28;20051;-49
2022/02/14 09:10:12;;;;;;;29.45;3.75;;;;;;;15.05;45.44;97917.94;5091823;28;20024;-49
2022/02/14 09:12:38;;;;;;;31.70;5.38;;;;;;;15.29;45.28;97917.63;5091816;28;20421;-49
2022/02/14 09:15:05;;;;;;;30.85;5.05;;;;;;;15.54;44.64;97922.38;5091701;28;20028;-49
2022/02/14 09:17:31;;;;;;;26.60;6.32;;;;;;;15.68;44.71;97923.53;5091831;28;20034;-49
2022/02/14 09:19:56;;;;;;;22.75;4.93;;;;;;;15.86;44.13;97922.38;5093026;28;20020;-49
2022/02/14 09:22:22;;;;;;;29.92;4.72;;;;;;;16.01;44.07;97916.41;5091684;28;20036;-49
2022/02/14 09:24:48;;;;;;;42.25;18.35;;;;;;;16.12;43.83;97918.06;5092902;28;20028;-48
2022/02/14 09:27:14;;;;;;;41.03;14.35;;;;;;;16.16;43.28;97916.50;5091511;28;20390;-50
2022/02/14 09:29:40;;;;;;;65.38;39.85;;;;;;;16.16;43.70;97919.16;5091490;28;20101;-49
2022/02/14 09:32:06;;;;;;;62.55;29.80;;;;;;;16.16;43.91;97924.44;5093340;28;20055;-49
2022/02/14 09:34:32;;;;;;;25.70;8.63;;;;;;;16.10;43.86;97925.47;5092699;28;20394;-50
2022/02/14 09:36:58;;;;;;;22.77;6.88;;;;;;;15.95;44.38;97928.78;5091104;28;20067;-49
2022/02/14 09:39:30;;;;;;;19.40;4.55;;;;;;;15.78;44.78;97934.22;5091281;28;20032;-49
2022/02/14 09:42:00;;;;;;;17.52;3.67;;;;;;;15.74;45.04;97927.06;5092688;28;20032;-49
2022/02/14 09:44:27;;;;;;;19.83;5.15;;;;;;;15.77;45.04;97930.00;5092641;28;20032;-49
2022/02/14 09:46:53;;;;;;;14.20;3.38;;;;;;;15.76;45.10;97927.59;5091180;28;20439;-49
2022/02/14 09:49:20;;;;;;;22.67;5.70;;;;;;;15.85;44.91;97927.94;5091181;28;20028;-49
2022/02/14 09:51:47;;;;;;;23.13;5.15;;;;;;;15.92;44.85;97933.81;5092415;28;20100;-49
2022/02/14 09:54:13;;;;;;;22.90;3.70;;;;;;;16.05;44.75;97941.31;5091138;28;20024;-49
2022/02/14 09:56:40;;;;;;;15.82;3.38;;;;;;;16.24;46.84;97943.53;5090942;28;20115;-49
2022/02/14 09:59:07;;;;;;;25.20;4.78;;;;;;;16.20;49.43;97947.75;5090980;28;20028;-49
2022/02/14 10:01:33;;;;;;;15.45;3.55;;;;;;;15.91;50.66;97943.59;5090940;28;20085;-49
2022/02/14 10:04:04;;;;;;;14.70;3.75;;;;;;;15.40;53.01;97960.84;5090957;28;20055;-50
2022/02/14 10:06:39;;;;;;;16.08;4.22;;;;;;;14.75;54.68;97955.34;5092242;28;20511;-50
2022/02/14 10:09:06;;;;;;;17.63;3.60;;;;;;;14.23;56.41;97968.88;5092282;28;20031;-49
2022/02/14 10:11:34;;;;;;;15.75;4.10;;;;;;;13.90;58.33;97962.56;5092025;28;20020;-48
2022/02/14 10:14:17;;;;;;;15.35;3.97;;;;;;;13.70;60.64;97978.84;5090764;28;20441;-49
2022/02/14 10:17:03;;;;;;;11.77;3.90;;;;;;;13.49;61.64;97977.69;5092019;28;20115;-48
2022/02/14 10:19:30;;;;;;;15.95;3.45;;;;;;;13.18;62.12;97987.63;5091658;28;20053;-48
2022/02/14 10:21:57;;;;;;;12.63;4.13;;;;;;;12.89;64.47;97997.31;5091987;28;20062;-49
2022/02/14 10:24:24;;;;;;;14.20;4.50;;;;;;;12.50;65.97;98007.56;5091968;28;20020;-50
2022/02/14 10:26:52;;;;;;;14.90;4.10;;;;;;;12.18;67.42;98006.03;5091905;28;20028;-49
2022/02/14 10:29:22;;;;;;;15.48;3.75;;;;;;;11.98;68.46;98016.09;5091932;28;20520;-49
2022/02/14 10:31:52;;;;;;;13.30;3.97;;;;;;;11.74;69.79;98020.44;5091897;28;20528;-50
2022/02/14 10:34:39;;;;;;;16.40;4.65;;;;;;;11.57;71.18;98036.06;5091904;28;20028;-49
2022/02/14 10:37:10;;;;;;;16.63;4.07;;;;;;;11.52;72.64;98035.91;5091462;28;20044;-50
2022/02/14 10:39:36;;;;;;;13.07;3.17;;;;;;;11.63;72.82;98044.84;5091780;28;20020;-50
2022/02/14 10:42:09;;;;;;;10.98;3.72;;;;;;;11.58;73.81;98042.91;5091750;28;20038;-51
2022/02/14 10:47:33;;;;;;;17.88;2.60;;;;;;;11.68;74.85;98051.03;5091784;28;20035;-49
2022/02/14 10:50:05;;;;;;;8.77;2.50;;;;;;;11.75;75.06;98078.06;5090467;28;20089;-50
2022/02/14 10:52:34;;;;;;;9.02;1.85;;;;;;;11.61;74.94;98076.63;5091773;28;20039;-50
2022/02/14 10:55:01;;;;;;;11.27;1.75;;;;;;;11.52;75.90;98091.09;5090565;28;20397;-49
2022/02/14 10:57:31;;;;;;;8.82;1.77;;;;;;;11.50;75.76;98099.19;5091631;28;20493;-48
2022/02/14 11:00:10;;;;;;;5.88;1.52;;;;;;;11.38;76.13;98103.56;5091686;28;20024;-49
2022/02/14 11:02:38;;;;;;;10.40;2.90;;;;;;;11.28;76.03;98106.72;5091601;28;20497;-51
2022/02/14 11:05:07;;;;;;;8.73;2.15;;;;;;;11.22;76.97;98104.16;5091523;28;20016;-50
2022/02/14 11:07:34;;;;;;;11.15;1.90;;;;;;;11.22;76.95;98104.97;5090207;28;20028;-50
2022/02/14 11:10:01;;;;;;;5.95;1.58;;;;;;;11.03;77.26;98117.28;5090293;28;20115;-50
2022/02/14 11:12:35;;;;;;;5.10;0.90;;;;;;;10.85;77.55;98114.63;5090211;28;20085;-49
2022/02/14 11:15:04;;;;;;;9.25;1.45;;;;;;;10.58;76.73;98110.41;5091461;28;20048;-50
2022/02/14 11:17:33;;;;;;;4.43;1.00;;;;;;;10.30;77.43;98117.88;5091456;28;20486;-50
2022/02/14 11:20:06;;;;;;;6.65;1.55;;;;;;;10.09;78.38;98124.25;5091475;28;20024;-49
2022/02/14 11:22:37;;;;;;;10.13;1.10;;;;;;;9.96;78.76;98123.31;5091405;28;20047;-49
2022/02/14 11:25:20;;;;;;;9.73;1.40;;;;;;;9.98;79.42;98128.34;5090144;28;20383;-49
2022/02/14 11:28:16;;;;;;;4.05;1.13;;;;;;;9.93;79.19;98128.16;5090109;28;20108;-49